sensor_id;sensor_type;location;lat;lon;timestamp;temperature;humidity
22678;DHT22;26259;50.214;18.620;2023-03-01T00:02:19;-4.50;99.90
22678;DHT22;26259;50.214;18.620;2023-03-01T00:04:44;-4.50;99.90
22678;DHT22;26259;50.214;18.620;2023-03-01T00:07:10;-4.50;99.90
22678;DHT22;26259;50.214;18.620;2023-03-01T00:09:36;-4.60;99.90
22678;DHT22;26259;50.214;18.620;2023-03-01T00:12:02;-4.60;99.90
22678;DHT22;26259;50.214;18.620;2023-03-01T00:14:28;-4.60;99.90
22678;DHT22;26259;50.214;18.620;2023-03-01T00:16:54;-4.70;99.90
22678;DHT22;26259;50.214;18.620;2023-03-01T00:19:20;-4.70;99.90
22678;DHT22;26259;50.214;18.620;2023-03-01T00:21:47;-4.70;99.90
22678;DHT22;26259;50.214;18.620;2023-03-01T00:24:13;-4.70;99.90
22678;DHT22;26259;50.214;18.620;2023-03-01T00:26:39;-4.70;99.90
22678;DHT22;26259;50.214;18.620;2023-03-01T00:29:04;-4.70;99.90
22678;DHT22;26259;50.214;18.620;2023-03-01T00:31:32;-4.80;99.90
22678;DHT22;26259;50.214;18.620;2023-03-01T00:34:00;-4.80;99.90
22678;DHT22;26259;50.214;18.620;2023-03-01T00:36:32;-4.80;99.90
22678;DHT22;26259;50.214;18.620;2023-03-01T00:38:57;-4.80;99.90
22678;DHT22;26259;50.214;18.620;2023-03-01T00:41:23;-4.80;99.90
22678;DHT22;26259;50.214;18.620;2023-03-01T00:43:52;-4.80;99.90
22678;DHT22;26259;50.214;18.620;2023-03-01T00:46:20;-4.80;99.90
22678;DHT22;26259;50.214;18.620;2023-03-01T00:48:46;-4.80;99.90
22678;DHT22;26259;50.214;18.620;2023-03-01T00:51:15;-4.90;99.90
22678;DHT22;26259;50.214;18.620;2023-03-01T00:53:42;-4.80;99.90
22678;DHT22;26259;50.214;18.620;2023-03-01T00:56:09;-4.80;99.90
22678;DHT22;26259;50.214;18.620;2023-03-01T00:58:35;-4.80;99.90
22678;DHT22;26259;50.214;18.620;2023-03-01T01:01:11;-4.80;99.90
22678;DHT22;26259;50.214;18.620;2023-03-01T01:03:50;-4.80;99.90
22678;DHT22;26259;50.214;18.620;2023-03-01T01:06:21;-4.90;99.90
22678;DHT22;26259;50.214;18.620;2023-03-01T01:08:48;-4.80;99.90
22678;DHT22;26259;50.214;18.620;2023-03-01T01:11:14;-4.80;99.90
22678;DHT22;26259;50.214;18.620;2023-03-01T01:13:40;-4.90;99.90
22678;DHT22;26259;50.214;18.620;2023-03-01T01:16:07;-4.90;99.90
22678;DHT22;26259;50.214;18.620;2023-03-01T01:18:33;-4.90;99.90
22678;DHT22;26259;50.214;18.620;2023-03-01T01:21:08;-4.90;99.90
22678;DHT22;26259;50.214;18.620;2023-03-01T01:23:34;-4.90;99.90
22678;DHT22;26259;50.214;18.620;2023-03-01T01:26:28;-5.00;99.90
22678;DHT22;26259;50.214;18.620;2023-03-01T01:28:54;-5.00;99.90
22678;DHT22;26259;50.214;18.620;2023-03-01T01:31:21;-5.00;99.90
22678;DHT22;26259;50.214;18.620;2023-03-01T01:33:49;-5.00;99.90
22678;DHT22;26259;50.214;18.620;2023-03-01T01:36:15;-5.00;99.90
22678;DHT22;26259;50.214;18.620;2023-03-01T01:38:41;-5.00;99.90
22678;DHT22;26259;50.214;18.620;2023-03-01T01:41:08;-5.00;99.90
22678;DHT22;26259;50.214;18.620;2023-03-01T01:43:45;-5.00;99.90
22678;DHT22;26259;50.214;18.620;2023-03-01T01:46:32;-5.10;99.90
22678;DHT22;26259;50.214;18.620;2023-03-01T01:49:03;-5.10;99.90
22678;DHT22;26259;50.214;18.620;2023-03-01T01:51:34;-5.10;99.90
22678;DHT22;26259;50.214;18.620;2023-03-01T01:54:10;-5.10;99.90
22678;DHT22;26259;50.214;18.620;2023-03-01T01:56:40;-5.10;99.90
22678;DHT22;26259;50.214;18.620;2023-03-01T01:59:08;-5.10;99.90
22678;DHT22;26259;50.214;18.620;2023-03-01T02:01:34;-5.10;99.90
22678;DHT22;26259;50.214;18.620;2023-03-01T02:04:00;-5.20;99.90
22678;DHT22;26259;50.214;18.620;2023-03-01T02:06:44;-5.20;99.90
22678;DHT22;26259;50.214;18.620;2023-03-01T02:09:14;-5.20;99.90
22678;DHT22;26259;50.214;18.620;2023-03-01T02:11:41;-5.20;99.90
22678;DHT22;26259;50.214;18.620;2023-03-01T02:14:08;-5.20;99.90
22678;DHT22;26259;50.214;18.620;2023-03-01T02:16:34;-5.20;99.90
22678;DHT22;26259;50.214;18.620;2023-03-01T02:19:01;-5.30;99.90
22678;DHT22;26259;50.214;18.620;2023-03-01T02:21:46;-5.30;99.90
22678;DHT22;26259;50.214;18.620;2023-03-01T02:24:38;-5.20;99.90
22678;DHT22;26259;50.214;18.620;2023-03-01T02:27:06;-5.30;99.90
22678;DHT22;26259;50.214;18.620;2023-03-01T02:29:32;-5.30;99.90
22678;DHT22;26259;50.214;18.620;2023-03-01T02:32:00;-5.30;99.90
22678;DHT22;26259;50.214;18.620;2023-03-01T02:34:28;-5.40;99.90
22678;DHT22;26259;50.214;18.620;2023-03-01T02:37:10;-5.40;99.90
22678;DHT22;26259;50.214;18.620;2023-03-01T02:39:42;-5.40;99.90
22678;DHT22;26259;50.214;18.620;2023-03-01T02:42:15;-5.40;99.90
22678;DHT22;26259;50.214;18.620;2023-03-01T02:44:42;-5.40;99.90
22678;DHT22;26259;50.214;18.620;2023-03-01T02:47:08;-5.40;99.90
22678;DHT22;26259;50.214;18.620;2023-03-01T02:49:35;-5.40;99.90
22678;DHT22;26259;50.214;18.620;2023-03-01T02:55:12;-5.40;99.90
22678;DHT22;26259;50.214;18.620;2023-03-01T02:57:40;-5.50;99.90
22678;DHT22;26259;50.214;18.620;2023-03-01T03:00:13;-5.50;99.90
22678;DHT22;26259;50.214;18.620;2023-03-01T03:02:54;-5.50;99.90
22678;DHT22;26259;50.214;18.620;2023-03-01T03:05:25;-5.60;99.90
22678;DHT22;26259;50.214;18.620;2023-03-01T03:07:52;-5.60;99.90
22678;DHT22;26259;50.214;18.620;2023-03-01T03:10:38;-5.60;99.90
22678;DHT22;26259;50.214;18.620;2023-03-01T03:13:10;-5.60;99.90
22678;DHT22;26259;50.214;18.620;2023-03-01T03:15:36;-5.60;99.90
22678;DHT22;26259;50.214;18.620;2023-03-01T03:18:04;-5.60;99.90
22678;DHT22;26259;50.214;18.620;2023-03-01T03:23:00;-5.70;99.90
22678;DHT22;26259;50.214;18.620;2023-03-01T03:25:28;-5.70;99.90
22678;DHT22;26259;50.214;18.620;2023-03-01T03:27:54;-5.70;99.90
22678;DHT22;26259;50.214;18.620;2023-03-01T03:30:31;-5.70;99.90
22678;DHT22;26259;50.214;18.620;2023-03-01T03:32:58;-5.70;99.90
22678;DHT22;26259;50.214;18.620;2023-03-01T03:35:27;-5.70;99.90
22678;DHT22;26259;50.214;18.620;2023-03-01T03:42:58;-5.70;99.90
22678;DHT22;26259;50.214;18.620;2023-03-01T03:45:23;-5.70;99.90
22678;DHT22;26259;50.214;18.620;2023-03-01T03:47:49;-5.70;99.90
22678;DHT22;26259;50.214;18.620;2023-03-01T03:50:16;-5.70;99.90
22678;DHT22;26259;50.214;18.620;2023-03-01T03:52:42;-5.70;99.90
22678;DHT22;26259;50.214;18.620;2023-03-01T03:55:09;-5.70;99.90
22678;DHT22;26259;50.214;18.620;2023-03-01T03:57:36;-5.70;99.90
22678;DHT22;26259;50.214;18.620;2023-03-01T04:00:02;-5.70;99.90
22678;DHT22;26259;50.214;18.620;2023-03-01T04:02:30;-5.70;99.90
22678;DHT22;26259;50.214;18.620;2023-03-01T04:04:55;-5.70;99.90
22678;DHT22;26259;50.214;18.620;2023-03-01T04:07:21;-5.70;99.90
22678;DHT22;26259;50.214;18.620;2023-03-01T04:09:47;-5.70;99.90
22678;DHT22;26259;50.214;18.620;2023-03-01T04:12:12;-5.70;99.90
22678;DHT22;26259;50.214;18.620;2023-03-01T04:14:38;-5.70;99.90
22678;DHT22;26259;50.214;18.620;2023-03-01T04:17:03;-5.80;99.90
22678;DHT22;26259;50.214;18.620;2023-03-01T04:19:31;-5.80;99.90
22678;DHT22;26259;50.214;18.620;2023-03-01T04:24:33;-5.70;99.90
22678;DHT22;26259;50.214;18.620;2023-03-01T04:26:59;-5.70;99.90
22678;DHT22;26259;50.214;18.620;2023-03-01T04:29:24;-5.70;99.90
22678;DHT22;26259;50.214;18.620;2023-03-01T04:31:50;-5.70;99.90
22678;DHT22;26259;50.214;18.620;2023-03-01T04:34:16;-5.80;99.90
22678;DHT22;26259;50.214;18.620;2023-03-01T04:36:41;-5.80;99.90
22678;DHT22;26259;50.214;18.620;2023-03-01T04:39:07;-5.90;99.90
22678;DHT22;26259;50.214;18.620;2023-03-01T04:41:38;-5.90;99.90
22678;DHT22;26259;50.214;18.620;2023-03-01T04:44:08;-5.90;99.90
22678;DHT22;26259;50.214;18.620;2023-03-01T04:49:10;-5.80;99.90
22678;DHT22;26259;50.214;18.620;2023-03-01T04:51:35;-5.80;99.90
22678;DHT22;26259;50.214;18.620;2023-03-01T04:54:01;-5.90;99.90
22678;DHT22;26259;50.214;18.620;2023-03-01T04:56:26;-5.80;99.90
22678;DHT22;26259;50.214;18.620;2023-03-01T04:58:55;-5.90;99.90
22678;DHT22;26259;50.214;18.620;2023-03-01T05:01:21;-5.90;99.90
22678;DHT22;26259;50.214;18.620;2023-03-01T05:03:51;-5.80;99.90
22678;DHT22;26259;50.214;18.620;2023-03-01T05:06:18;-5.80;99.90
22678;DHT22;26259;50.214;18.620;2023-03-01T05:08:44;-5.90;99.90
22678;DHT22;26259;50.214;18.620;2023-03-01T05:11:10;-5.90;99.90
22678;DHT22;26259;50.214;18.620;2023-03-01T05:13:37;-5.90;99.90
22678;DHT22;26259;50.214;18.620;2023-03-01T05:16:04;-5.90;99.90
22678;DHT22;26259;50.214;18.620;2023-03-01T05:18:31;-5.90;99.90
22678;DHT22;26259;50.214;18.620;2023-03-01T05:21:08;-5.90;99.90
22678;DHT22;26259;50.214;18.620;2023-03-01T05:23:34;-5.90;99.90
22678;DHT22;26259;50.214;18.620;2023-03-01T05:26:02;-5.90;99.90
22678;DHT22;26259;50.214;18.620;2023-03-01T05:28:29;-5.90;99.90
22678;DHT22;26259;50.214;18.620;2023-03-01T05:30:55;-5.90;99.90
22678;DHT22;26259;50.214;18.620;2023-03-01T05:33:21;-5.90;99.90
22678;DHT22;26259;50.214;18.620;2023-03-01T05:35:48;-5.80;99.90
22678;DHT22;26259;50.214;18.620;2023-03-01T05:38:15;-5.90;99.90
22678;DHT22;26259;50.214;18.620;2023-03-01T05:40:42;-5.80;99.90
22678;DHT22;26259;50.214;18.620;2023-03-01T05:43:09;-5.80;99.90
22678;DHT22;26259;50.214;18.620;2023-03-01T05:45:36;-5.80;99.90
22678;DHT22;26259;50.214;18.620;2023-03-01T05:48:03;-5.80;99.90
22678;DHT22;26259;50.214;18.620;2023-03-01T05:50:33;-5.80;99.90
22678;DHT22;26259;50.214;18.620;2023-03-01T05:53:00;-5.80;99.90
22678;DHT22;26259;50.214;18.620;2023-03-01T05:58:03;-5.70;99.90
22678;DHT22;26259;50.214;18.620;2023-03-01T06:00:29;-5.70;99.90
22678;DHT22;26259;50.214;18.620;2023-03-01T06:02:56;-5.60;99.90
22678;DHT22;26259;50.214;18.620;2023-03-01T06:05:23;-5.60;99.90
22678;DHT22;26259;50.214;18.620;2023-03-01T06:07:49;-5.50;99.90
22678;DHT22;26259;50.214;18.620;2023-03-01T06:10:16;-5.50;99.90
22678;DHT22;26259;50.214;18.620;2023-03-01T06:17:53;-5.30;99.90
22678;DHT22;26259;50.214;18.620;2023-03-01T06:20:22;-5.20;99.90
22678;DHT22;26259;50.214;18.620;2023-03-01T06:22:49;-5.10;99.90
22678;DHT22;26259;50.214;18.620;2023-03-01T06:25:17;-5.00;99.90
22678;DHT22;26259;50.214;18.620;2023-03-01T06:27:43;-4.90;99.90
22678;DHT22;26259;50.214;18.620;2023-03-01T06:32:37;-4.70;99.90
22678;DHT22;26259;50.214;18.620;2023-03-01T06:35:04;-4.60;99.90
22678;DHT22;26259;50.214;18.620;2023-03-01T06:40:06;-4.40;99.90
22678;DHT22;26259;50.214;18.620;2023-03-01T06:42:34;-4.30;99.90
22678;DHT22;26259;50.214;18.620;2023-03-01T06:45:00;-4.20;99.90
22678;DHT22;26259;50.214;18.620;2023-03-01T06:47:25;-4.10;99.90
22678;DHT22;26259;50.214;18.620;2023-03-01T06:49:51;-4.00;99.90
22678;DHT22;26259;50.214;18.620;2023-03-01T06:52:16;-3.90;99.90
22678;DHT22;26259;50.214;18.620;2023-03-01T06:54:42;-3.70;99.90
22678;DHT22;26259;50.214;18.620;2023-03-01T06:57:08;-3.60;99.90
22678;DHT22;26259;50.214;18.620;2023-03-01T06:59:33;-3.50;99.90
22678;DHT22;26259;50.214;18.620;2023-03-01T07:01:59;-3.40;99.90
22678;DHT22;26259;50.214;18.620;2023-03-01T07:07:00;-3.20;99.90
22678;DHT22;26259;50.214;18.620;2023-03-01T07:09:26;-3.10;99.90
22678;DHT22;26259;50.214;18.620;2023-03-01T07:11:51;-3.00;99.90
22678;DHT22;26259;50.214;18.620;2023-03-01T07:14:17;-2.80;99.90
22678;DHT22;26259;50.214;18.620;2023-03-01T07:16:45;-2.70;99.90
22678;DHT22;26259;50.214;18.620;2023-03-01T07:19:10;-2.60;99.90
22678;DHT22;26259;50.214;18.620;2023-03-01T07:21:36;-2.50;99.90
22678;DHT22;26259;50.214;18.620;2023-03-01T07:24:08;-2.30;99.90
22678;DHT22;26259;50.214;18.620;2023-03-01T07:26:34;-2.30;99.90
22678;DHT22;26259;50.214;18.620;2023-03-01T07:29:03;-2.20;99.90
22678;DHT22;26259;50.214;18.620;2023-03-01T07:31:29;-2.10;99.90
22678;DHT22;26259;50.214;18.620;2023-03-01T07:33:55;-1.90;99.90
22678;DHT22;26259;50.214;18.620;2023-03-01T07:36:21;-1.80;99.90
22678;DHT22;26259;50.214;18.620;2023-03-01T07:38:47;-1.70;99.90
22678;DHT22;26259;50.214;18.620;2023-03-01T07:41:12;-1.60;99.90
22678;DHT22;26259;50.214;18.620;2023-03-01T07:43:38;-1.60;99.90
22678;DHT22;26259;50.214;18.620;2023-03-01T07:46:04;-1.50;99.90
22678;DHT22;26259;50.214;18.620;2023-03-01T07:48:31;-1.40;99.90
22678;DHT22;26259;50.214;18.620;2023-03-01T07:51:01;-1.30;99.90
22678;DHT22;26259;50.214;18.620;2023-03-01T07:53:27;-1.20;99.90
22678;DHT22;26259;50.214;18.620;2023-03-01T07:56:12;-1.10;99.90
22678;DHT22;26259;50.214;18.620;2023-03-01T07:58:40;-1.10;99.90
22678;DHT22;26259;50.214;18.620;2023-03-01T08:01:08;-1.00;99.90
22678;DHT22;26259;50.214;18.620;2023-03-01T08:03:34;-0.90;99.90
22678;DHT22;26259;50.214;18.620;2023-03-01T08:06:01;-0.80;99.90
22678;DHT22;26259;50.214;18.620;2023-03-01T08:08:27;-0.60;99.90
22678;DHT22;26259;50.214;18.620;2023-03-01T08:10:56;-0.50;99.90
22678;DHT22;26259;50.214;18.620;2023-03-01T08:13:22;-0.40;99.90
22678;DHT22;26259;50.214;18.620;2023-03-01T08:15:50;-0.30;99.90
22678;DHT22;26259;50.214;18.620;2023-03-01T08:18:17;-0.20;99.90
22678;DHT22;26259;50.214;18.620;2023-03-01T08:20:43;-0.10;99.90
22678;DHT22;26259;50.214;18.620;2023-03-01T08:23:09;0.00;99.90
22678;DHT22;26259;50.214;18.620;2023-03-01T08:25:35;0.10;99.90
22678;DHT22;26259;50.214;18.620;2023-03-01T08:28:01;0.30;99.90
22678;DHT22;26259;50.214;18.620;2023-03-01T08:30:26;0.40;99.90
22678;DHT22;26259;50.214;18.620;2023-03-01T08:32:52;0.50;99.90
22678;DHT22;26259;50.214;18.620;2023-03-01T08:35:18;0.60;99.90
22678;DHT22;26259;50.214;18.620;2023-03-01T08:37:44;0.60;99.90
22678;DHT22;26259;50.214;18.620;2023-03-01T08:40:10;0.70;99.90
22678;DHT22;26259;50.214;18.620;2023-03-01T08:42:36;0.80;99.90
22678;DHT22;26259;50.214;18.620;2023-03-01T08:45:03;0.90;99.90
22678;DHT22;26259;50.214;18.620;2023-03-01T08:47:29;1.00;99.90
22678;DHT22;26259;50.214;18.620;2023-03-01T08:49:54;1.10;99.90
22678;DHT22;26259;50.214;18.620;2023-03-01T09:13:02;2.40;99.90
22678;DHT22;26259;50.214;18.620;2023-03-01T09:23:14;3.00;99.90
22678;DHT22;26259;50.214;18.620;2023-03-01T09:25:40;3.10;99.90
22678;DHT22;26259;50.214;18.620;2023-03-01T09:28:05;3.10;99.90
22678;DHT22;26259;50.214;18.620;2023-03-01T09:30:31;3.20;99.90
22678;DHT22;26259;50.214;18.620;2023-03-01T09:32:57;3.30;99.90
22678;DHT22;26259;50.214;18.620;2023-03-01T09:37:58;3.40;99.90
22678;DHT22;26259;50.214;18.620;2023-03-01T09:40:26;3.40;99.90
22678;DHT22;26259;50.214;18.620;2023-03-01T09:43:06;3.50;99.90
22678;DHT22;26259;50.214;18.620;2023-03-01T09:45:35;3.50;99.90
22678;DHT22;26259;50.214;18.620;2023-03-01T09:48:03;3.60;99.90
22678;DHT22;26259;50.214;18.620;2023-03-01T09:50:35;3.60;99.90
22678;DHT22;26259;50.214;18.620;2023-03-01T09:55:42;3.70;99.90
22678;DHT22;26259;50.214;18.620;2023-03-01T10:06:35;4.00;99.90
22678;DHT22;26259;50.214;18.620;2023-03-01T10:24:35;4.00;99.90
22678;DHT22;26259;50.214;18.620;2023-03-01T10:29:48;4.10;99.90
22678;DHT22;26259;50.214;18.620;2023-03-01T10:32:17;4.20;99.90
22678;DHT22;26259;50.214;18.620;2023-03-01T10:34:43;4.30;99.90
22678;DHT22;26259;50.214;18.620;2023-03-01T10:37:15;4.40;99.90
22678;DHT22;26259;50.214;18.620;2023-03-01T10:40:04;4.50;99.90
22678;DHT22;26259;50.214;18.620;2023-03-01T10:47:43;4.40;99.90
22678;DHT22;26259;50.214;18.620;2023-03-01T10:53:02;4.30;99.90
22678;DHT22;26259;50.214;18.620;2023-03-01T10:55:38;4.30;99.90
22678;DHT22;26259;50.214;18.620;2023-03-01T10:58:19;4.30;99.90
22678;DHT22;26259;50.214;18.620;2023-03-01T11:01:06;4.30;99.90
22678;DHT22;26259;50.214;18.620;2023-03-01T11:04:15;4.40;99.90
22678;DHT22;26259;50.214;18.620;2023-03-01T11:06:42;4.50;99.90
22678;DHT22;26259;50.214;18.620;2023-03-01T11:11:42;4.60;99.90
22678;DHT22;26259;50.214;18.620;2023-03-01T11:14:37;4.70;99.90
22678;DHT22;26259;50.214;18.620;2023-03-01T11:17:04;4.70;99.90
22678;DHT22;26259;50.214;18.620;2023-03-01T11:19:30;4.70;99.90
22678;DHT22;26259;50.214;18.620;2023-03-01T11:22:01;4.80;99.90
22678;DHT22;26259;50.214;18.620;2023-03-01T11:27:20;4.90;99.90
22678;DHT22;26259;50.214;18.620;2023-03-01T11:30:05;4.90;99.90
22678;DHT22;26259;50.214;18.620;2023-03-01T11:35:28;4.80;99.90
22678;DHT22;26259;50.214;18.620;2023-03-01T11:38:25;4.80;99.90
22678;DHT22;26259;50.214;18.620;2023-03-01T11:41:05;4.90;99.90
22678;DHT22;26259;50.214;18.620;2023-03-01T11:51:17;5.20;99.90
22678;DHT22;26259;50.214;18.620;2023-03-01T11:53:55;5.20;99.90
22678;DHT22;26259;50.214;18.620;2023-03-01T11:56:31;5.20;99.90
22678;DHT22;26259;50.214;18.620;2023-03-01T11:59:24;5.30;99.90
22678;DHT22;26259;50.214;18.620;2023-03-01T12:10:10;5.30;99.90
22678;DHT22;26259;50.214;18.620;2023-03-01T12:46:19;5.90;99.90
22678;DHT22;26259;50.214;18.620;2023-03-01T12:51:23;5.90;99.90
22678;DHT22;26259;50.214;18.620;2023-03-01T12:53:51;5.90;99.90
22678;DHT22;26259;50.214;18.620;2023-03-01T12:56:21;5.90;99.90
22678;DHT22;26259;50.214;18.620;2023-03-01T13:02:03;5.80;99.90
22678;DHT22;26259;50.214;18.620;2023-03-01T13:07:33;5.80;99.90
22678;DHT22;26259;50.214;18.620;2023-03-01T13:10:58;5.90;99.90
22678;DHT22;26259;50.214;18.620;2023-03-01T13:15:45;5.90;99.90
22678;DHT22;26259;50.214;18.620;2023-03-01T13:20:50;6.00;99.90
22678;DHT22;26259;50.214;18.620;2023-03-01T13:31:11;5.90;99.90
22678;DHT22;26259;50.214;18.620;2023-03-01T13:34:02;5.90;99.90
22678;DHT22;26259;50.214;18.620;2023-03-01T13:39:30;6.00;99.90
22678;DHT22;26259;50.214;18.620;2023-03-01T13:41:59;6.00;99.90
22678;DHT22;26259;50.214;18.620;2023-03-01T13:49:43;6.10;99.90
22678;DHT22;26259;50.214;18.620;2023-03-01T13:52:43;6.20;99.90
22678;DHT22;26259;50.214;18.620;2023-03-01T13:57:45;6.20;99.90
22678;DHT22;26259;50.214;18.620;2023-03-01T14:00:38;6.20;99.90
22678;DHT22;26259;50.214;18.620;2023-03-01T14:03:16;6.20;99.90
22678;DHT22;26259;50.214;18.620;2023-03-01T14:06:04;6.20;99.90
22678;DHT22;26259;50.214;18.620;2023-03-01T14:08:34;6.20;99.90
22678;DHT22;26259;50.214;18.620;2023-03-01T14:21:20;6.30;99.90
22678;DHT22;26259;50.214;18.620;2023-03-01T14:23:46;6.40;99.90
22678;DHT22;26259;50.214;18.620;2023-03-01T14:26:12;6.30;99.90
22678;DHT22;26259;50.214;18.620;2023-03-01T14:28:38;6.30;99.90
22678;DHT22;26259;50.214;18.620;2023-03-01T14:31:39;6.30;99.90
22678;DHT22;26259;50.214;18.620;2023-03-01T14:34:05;6.20;99.90
22678;DHT22;26259;50.214;18.620;2023-03-01T14:36:33;6.10;99.90
22678;DHT22;26259;50.214;18.620;2023-03-01T14:38:59;6.20;99.90
22678;DHT22;26259;50.214;18.620;2023-03-01T14:41:34;6.10;99.90
22678;DHT22;26259;50.214;18.620;2023-03-01T14:44:05;6.20;99.90
22678;DHT22;26259;50.214;18.620;2023-03-01T14:46:34;6.30;99.90
22678;DHT22;26259;50.214;18.620;2023-03-01T14:49:16;6.30;99.90
22678;DHT22;26259;50.214;18.620;2023-03-01T14:54:23;6.30;99.90
22678;DHT22;26259;50.214;18.620;2023-03-01T14:56:52;6.20;99.90
22678;DHT22;26259;50.214;18.620;2023-03-01T14:59:22;6.20;99.90
22678;DHT22;26259;50.214;18.620;2023-03-01T15:01:50;6.20;99.90
22678;DHT22;26259;50.214;18.620;2023-03-01T15:04:16;6.20;99.90
22678;DHT22;26259;50.214;18.620;2023-03-01T15:06:44;6.10;99.90
22678;DHT22;26259;50.214;18.620;2023-03-01T15:09:15;6.10;99.90
22678;DHT22;26259;50.214;18.620;2023-03-01T15:11:42;6.10;99.90
22678;DHT22;26259;50.214;18.620;2023-03-01T15:14:29;6.10;99.90
22678;DHT22;26259;50.214;18.620;2023-03-01T15:17:03;6.10;99.90
22678;DHT22;26259;50.214;18.620;2023-03-01T15:19:30;6.00;99.90
22678;DHT22;26259;50.214;18.620;2023-03-01T15:21:55;6.00;99.90
22678;DHT22;26259;50.214;18.620;2023-03-01T15:24:24;5.90;99.90
22678;DHT22;26259;50.214;18.620;2023-03-01T15:26:57;5.90;99.90
22678;DHT22;26259;50.214;18.620;2023-03-01T15:29:29;5.90;99.90
22678;DHT22;26259;50.214;18.620;2023-03-01T15:32:04;5.90;99.90
22678;DHT22;26259;50.214;18.620;2023-03-01T15:34:37;5.80;99.90
22678;DHT22;26259;50.214;18.620;2023-03-01T15:37:06;5.70;99.90
22678;DHT22;26259;50.214;18.620;2023-03-01T15:39:42;5.60;99.90
22678;DHT22;26259;50.214;18.620;2023-03-01T15:47:54;5.30;99.90
22678;DHT22;26259;50.214;18.620;2023-03-01T15:50:30;5.20;99.90
22678;DHT22;26259;50.214;18.620;2023-03-01T15:52:58;5.20;99.90
22678;DHT22;26259;50.214;18.620;2023-03-01T15:55:30;5.00;99.90
22678;DHT22;26259;50.214;18.620;2023-03-01T15:58:04;4.90;99.90
22678;DHT22;26259;50.214;18.620;2023-03-01T16:00:32;4.70;99.90
22678;DHT22;26259;50.214;18.620;2023-03-01T16:02:58;4.60;99.90
22678;DHT22;26259;50.214;18.620;2023-03-01T16:07:49;4.20;99.90
22678;DHT22;26259;50.214;18.620;2023-03-01T16:10:16;4.10;99.90
22678;DHT22;26259;50.214;18.620;2023-03-01T16:12:41;3.90;99.90
22678;DHT22;26259;50.214;18.620;2023-03-01T16:15:17;3.80;99.90
22678;DHT22;26259;50.214;18.620;2023-03-01T16:17:43;3.60;99.90
22678;DHT22;26259;50.214;18.620;2023-03-01T16:20:09;3.40;99.90
22678;DHT22;26259;50.214;18.620;2023-03-01T16:22:35;3.20;99.90
22678;DHT22;26259;50.214;18.620;2023-03-01T16:25:00;3.00;99.90
22678;DHT22;26259;50.214;18.620;2023-03-01T16:27:27;2.80;99.90
22678;DHT22;26259;50.214;18.620;2023-03-01T16:29:53;2.60;99.90
22678;DHT22;26259;50.214;18.620;2023-03-01T16:32:19;2.50;99.90
22678;DHT22;26259;50.214;18.620;2023-03-01T16:34:44;2.50;99.90
22678;DHT22;26259;50.214;18.620;2023-03-01T16:37:13;2.30;99.90
22678;DHT22;26259;50.214;18.620;2023-03-01T16:39:38;2.20;99.90
22678;DHT22;26259;50.214;18.620;2023-03-01T16:42:04;2.20;99.90
22678;DHT22;26259;50.214;18.620;2023-03-01T16:44:30;2.10;99.90
22678;DHT22;26259;50.214;18.620;2023-03-01T16:46:55;2.20;99.90
22678;DHT22;26259;50.214;18.620;2023-03-01T16:49:21;2.20;99.90
22678;DHT22;26259;50.214;18.620;2023-03-01T16:51:46;2.20;99.90
22678;DHT22;26259;50.214;18.620;2023-03-01T16:54:12;2.20;99.90
22678;DHT22;26259;50.214;18.620;2023-03-01T16:56:38;2.30;99.90
22678;DHT22;26259;50.214;18.620;2023-03-01T16:59:05;2.20;99.90
22678;DHT22;26259;50.214;18.620;2023-03-01T17:01:31;2.20;99.90
22678;DHT22;26259;50.214;18.620;2023-03-01T17:04:05;2.10;99.90
22678;DHT22;26259;50.214;18.620;2023-03-01T17:06:31;2.00;99.90
22678;DHT22;26259;50.214;18.620;2023-03-01T17:08:58;1.90;99.90
22678;DHT22;26259;50.214;18.620;2023-03-01T17:11:24;1.70;99.90
22678;DHT22;26259;50.214;18.620;2023-03-01T17:13:51;1.40;99.90
22678;DHT22;26259;50.214;18.620;2023-03-01T17:16:18;1.30;99.90
22678;DHT22;26259;50.214;18.620;2023-03-01T17:18:46;1.00;99.90
22678;DHT22;26259;50.214;18.620;2023-03-01T17:21:12;0.80;99.90
22678;DHT22;26259;50.214;18.620;2023-03-01T17:23:41;0.60;99.90
22678;DHT22;26259;50.214;18.620;2023-03-01T17:26:07;0.50;99.90
22678;DHT22;26259;50.214;18.620;2023-03-01T17:28:34;0.40;99.90
22678;DHT22;26259;50.214;18.620;2023-03-01T17:31:00;0.20;99.90
22678;DHT22;26259;50.214;18.620;2023-03-01T17:33:26;0.10;99.90
22678;DHT22;26259;50.214;18.620;2023-03-01T17:35:52;0.00;99.90
22678;DHT22;26259;50.214;18.620;2023-03-01T17:38:18;0.00;99.90
22678;DHT22;26259;50.214;18.620;2023-03-01T17:40:44;-0.10;99.90
22678;DHT22;26259;50.214;18.620;2023-03-01T17:43:12;-0.20;99.90
22678;DHT22;26259;50.214;18.620;2023-03-01T17:45:38;-0.20;99.90
22678;DHT22;26259;50.214;18.620;2023-03-01T17:48:05;-0.20;99.90
22678;DHT22;26259;50.214;18.620;2023-03-01T17:50:32;-0.30;99.90
22678;DHT22;26259;50.214;18.620;2023-03-01T17:52:58;-0.30;99.90
22678;DHT22;26259;50.214;18.620;2023-03-01T17:55:24;-0.30;99.90
22678;DHT22;26259;50.214;18.620;2023-03-01T17:57:49;-0.40;99.90
22678;DHT22;26259;50.214;18.620;2023-03-01T18:00:16;-0.50;99.90
22678;DHT22;26259;50.214;18.620;2023-03-01T18:02:42;-0.50;99.90
22678;DHT22;26259;50.214;18.620;2023-03-01T18:05:08;-0.40;99.90
22678;DHT22;26259;50.214;18.620;2023-03-01T18:07:34;-0.40;99.90
22678;DHT22;26259;50.214;18.620;2023-03-01T18:10:00;-0.50;99.90
22678;DHT22;26259;50.214;18.620;2023-03-01T18:12:26;-0.60;99.90
22678;DHT22;26259;50.214;18.620;2023-03-01T18:14:51;-0.80;99.90
22678;DHT22;26259;50.214;18.620;2023-03-01T18:17:22;-0.90;99.90
22678;DHT22;26259;50.214;18.620;2023-03-01T18:19:48;-1.00;99.90
22678;DHT22;26259;50.214;18.620;2023-03-01T18:22:14;-1.10;99.90
22678;DHT22;26259;50.214;18.620;2023-03-01T18:24:40;-1.20;99.90
22678;DHT22;26259;50.214;18.620;2023-03-01T18:27:06;-1.30;99.90
22678;DHT22;26259;50.214;18.620;2023-03-01T18:29:32;-1.30;99.90
22678;DHT22;26259;50.214;18.620;2023-03-01T18:31:58;-1.40;99.90
22678;DHT22;26259;50.214;18.620;2023-03-01T18:34:24;-1.30;99.90
22678;DHT22;26259;50.214;18.620;2023-03-01T18:36:49;-1.30;99.90
22678;DHT22;26259;50.214;18.620;2023-03-01T18:39:20;-1.30;99.90
22678;DHT22;26259;50.214;18.620;2023-03-01T18:41:45;-1.30;99.90
22678;DHT22;26259;50.214;18.620;2023-03-01T18:44:11;-1.30;99.90
22678;DHT22;26259;50.214;18.620;2023-03-01T18:46:37;-1.30;99.90
22678;DHT22;26259;50.214;18.620;2023-03-01T18:49:04;-1.30;99.90
22678;DHT22;26259;50.214;18.620;2023-03-01T18:51:30;-1.30;99.90
22678;DHT22;26259;50.214;18.620;2023-03-01T18:53:57;-1.30;99.90
22678;DHT22;26259;50.214;18.620;2023-03-01T18:56:24;-1.20;99.90
22678;DHT22;26259;50.214;18.620;2023-03-01T18:58:50;-1.20;99.90
22678;DHT22;26259;50.214;18.620;2023-03-01T19:01:24;-1.20;99.90
22678;DHT22;26259;50.214;18.620;2023-03-01T19:03:50;-1.20;99.90
22678;DHT22;26259;50.214;18.620;2023-03-01T19:06:17;-1.30;99.90